Streator, Illinois
Current Conditions -  °F | °C
As of 4:15 PM on Thursday 23 Oct 2014 (Local Time) from KPNT Reporting Station
Clear Clear  
Wind Chill: 61°   Ceiling: Unl
Heat Index: 61°   Visibility: 10mi
Dew Point: 43°   Wind: 9mph
Humidity: 50%   Direction: 190°S
Pressure: 30.1"   Gusts: NA
Location:  41.12°N, 88.83°W
Report Text: KPNT 232115Z AUTO 19008KT 10SM CLR 16/06 A3010 RMK AO2 T01630059
Loading
Personal Weather Stations






























Interactive Weather Map
Tropical Storm Tracking
New forecast layout! Learn more

10-Day Weather Forecast

Advertisements
Track Severe Weather on mobile